createdAt,value
2019-02-09T05:04:08.035Z,92.724609
2019-02-09T05:07:35.930Z,94.012451
2019-02-09T05:11:03.811Z,94.628906
2019-02-09T05:14:31.676Z,95.251465
2019-02-09T05:17:59.556Z,96.081543
2019-02-09T05:21:27.410Z,96.331787
2019-02-09T05:24:55.284Z,96.643066
2019-02-09T05:28:23.162Z,96.850586
2019-02-09T05:31:51.019Z,97.155762
2019-02-09T05:35:18.879Z,97.259521
2019-02-09T05:38:46.750Z,97.155762
2019-02-09T05:42:14.639Z,97.259521
2019-02-09T05:45:42.493Z,97.259521
2019-02-09T05:49:10.389Z,97.155762
2019-02-09T05:52:38.257Z,97.058105
2019-02-09T05:56:06.112Z,97.155762
2019-02-09T05:59:33.986Z,97.155762
2019-02-09T06:03:01.855Z,97.058105
2019-02-09T06:06:29.707Z,96.643066
2019-02-09T06:09:57.580Z,96.539307
2019-02-09T06:13:25.476Z,96.331787
2019-02-09T06:16:53.382Z,96.228027
2019-02-09T06:20:21.244Z,95.709229
2019-02-09T06:23:49.111Z,96.020508
2019-02-09T06:27:16.974Z,96.228027
2019-02-09T06:30:44.823Z,96.643066
2019-02-09T06:34:13.696Z,96.954346
2019-02-09T06:37:41.570Z,97.058105
2019-02-09T06:41:09.423Z,97.259521
2019-02-09T06:44:37.296Z,97.77832
2019-02-09T06:48:05.165Z,97.98584
2019-02-09T06:51:33.039Z,98.443604
2019-02-09T06:55:00.897Z,98.132324
2019-02-09T06:58:28.770Z,98.0896
2019-02-09T07:01:56.631Z,97.98584
2019-02-09T07:05:24.508Z,97.88208
2019-02-09T07:08:52.380Z,97.88208
2019-02-09T07:12:21.221Z,97.98584
2019-02-09T07:15:49.098Z,97.88208
2019-02-09T07:19:16.985Z,97.674561
2019-02-09T07:22:44.836Z,97.058105
2019-02-09T07:26:12.704Z,96.954346
2019-02-09T07:29:40.563Z,96.643066
2019-02-09T07:33:08.430Z,96.020508
2019-02-09T07:36:36.280Z,95.874023
2019-02-09T07:40:04.150Z,95.666504
2019-02-09T07:43:32.037Z,95.770264
2019-02-09T07:47:00.884Z,95.458984
2019-02-09T07:50:28.769Z,95.147705
2019-02-09T07:53:56.884Z,94.53125
2019-02-09T07:57:24.872Z,93.865967
2019-02-09T08:00:52.736Z,94.073486
2019-02-09T08:04:20.602Z,93.762207
2019-02-09T08:07:48.474Z,93.347168
2019-02-09T08:11:17.319Z,93.554688
2019-02-09T08:14:45.203Z,93.450928
2019-02-09T08:18:14.537Z,93.762207
2019-02-09T08:21:45.299Z,93.658447
2019-02-09T08:25:13.169Z,93.658447
2019-02-09T08:28:41.046Z,93.450928
2019-02-09T08:32:12.679Z,93.200684
2019-02-09T08:35:40.846Z,93.096924
2019-02-09T08:39:08.826Z,92.584229
2019-02-09T08:42:36.721Z,92.681885
2019-02-09T08:46:06.553Z,92.437744
2019-02-09T08:49:34.437Z,92.541504
2019-02-09T08:53:02.316Z,92.126465
2019-02-09T08:56:31.191Z,92.333984
2019-02-09T09:00:00.098Z,91.876221
2019-02-09T09:03:28.932Z,91.461182
2019-02-09T09:06:56.801Z,91.668701
2019-02-09T09:10:25.767Z,91.156006
2019-02-09T09:13:53.635Z,91.357422
2019-02-09T09:17:21.492Z,91.009521
2019-02-09T09:20:49.365Z,90.698242
2019-02-09T09:24:17.253Z,90.447998
2019-02-09T09:27:47.447Z,90.100098
2019-02-09T09:31:15.622Z,89.892578
2019-02-09T09:34:43.422Z,89.788818
2019-02-09T09:38:11.330Z,89.129639
2019-02-09T09:41:39.272Z,88.513184
2019-02-09T09:45:08.156Z,89.648438
2019-02-09T09:48:36.042Z,89.129639
2019-02-09T09:52:03.919Z,88.720703
2019-02-09T09:55:31.819Z,88.720703
2019-02-09T09:58:59.712Z,89.709473
2019-02-09T10:02:27.573Z,89.605713
2019-02-09T10:05:59.402Z,89.086914
2019-02-09T10:09:27.265Z,89.050293
2019-02-09T10:12:55.125Z,87.60376
2019-02-09T10:16:23.015Z,88.018799
2019-02-09T10:19:50.891Z,87.091064
2019-02-09T10:23:18.802Z,86.950684
2019-02-09T10:26:47.820Z,85.778809
2019-02-09T10:30:15.715Z,85.467529
2019-02-09T10:33:43.652Z,86.291504
2019-02-09T10:37:11.571Z,85.015869
2019-02-09T10:40:39.453Z,83.477783
2019-02-09T10:44:07.318Z,82.861328
2019-02-09T10:47:35.171Z,82.550049
2019-02-09T10:51:03.064Z,82.922363
2019-02-09T10:54:31.923Z,82.305908
2019-02-09T10:57:59.815Z,83.026123
2019-02-09T12:45:21.818Z,65.551758
2019-02-09T12:48:51.669Z,66.705322
2019-02-09T12:52:21.511Z,70.458984
2019-02-09T12:55:51.365Z,74.395752
2019-02-09T12:59:21.276Z,80.047607
2019-02-09T13:02:51.275Z,84.313965
2019-02-09T13:06:21.134Z,86.14502
2019-02-09T13:09:51.016Z,87.896729
2019-02-09T13:13:20.860Z,88.366699
2019-02-09T13:16:50.760Z,87.524414
2019-02-09T13:20:21.561Z,85.595703
2019-02-09T13:23:51.410Z,82.922363
2019-02-09T13:27:21.252Z,82.446289
2019-02-09T13:30:51.116Z,82.202148
2019-02-09T13:34:21.986Z,80.493164
2019-02-09T13:37:51.879Z,79.260254
2019-02-09T13:41:21.982Z,79.876709
2019-02-09T13:44:52.013Z,78.131104
2019-02-09T13:48:22.003Z,77.716064
2019-02-09T13:51:51.842Z,76.483154
2019-02-09T13:55:21.705Z,74.633789
2019-02-09T13:58:51.598Z,72.546387
2019-02-09T14:02:21.432Z,72.027588
2019-02-09T14:05:51.294Z,70.281982
2019-02-09T14:09:21.167Z,70.147705
2019-02-09T14:12:51.014Z,69.842529
2019-02-09T14:16:20.873Z,70.489502
2019-02-09T14:19:50.724Z,69.976807
2019-02-09T14:23:20.566Z,69.226074
2019-02-09T14:26:50.417Z,69.561768
2019-02-09T14:30:20.299Z,67.712402
2019-02-09T14:33:54.909Z,67.712402
2019-02-09T14:37:22.993Z,68.609619
2019-02-09T14:40:52.868Z,67.169189
2019-02-09T14:44:22.717Z,67.889404
2019-02-09T14:47:52.583Z,67.06543
2019-02-09T14:51:22.445Z,66.998291
2019-02-09T14:54:53.286Z,67.095947
2019-02-09T14:58:23.138Z,66.864014
2019-02-09T15:01:53.001Z,67.303467
2019-02-09T15:05:22.867Z,68.847656
2019-02-09T15:08:52.725Z,67.816162
2019-02-09T15:12:22.588Z,66.583252
2019-02-09T15:15:52.447Z,68.127441
2019-02-09T15:19:22.320Z,66.479492
2019-02-09T15:22:52.164Z,67.095947
2019-02-09T15:26:22.022Z,66.278076
2019-02-09T15:29:51.884Z,66.381836
2019-02-09T15:33:21.746Z,66.790771
2019-02-09T15:36:51.618Z,66.070557
2019-02-09T15:40:21.484Z,66.479492
2019-02-09T15:43:51.340Z,67.919922
2019-02-09T15:47:21.224Z,67.333984
2019-02-09T15:50:51.068Z,65.997314
2019-02-09T15:54:20.922Z,67.028809
2019-02-09T15:57:50.800Z,66.717529
2019-02-09T16:01:21.705Z,67.028809
2019-02-09T16:04:51.538Z,67.437744
2019-02-09T16:08:21.415Z,67.541504
2019-02-09T16:11:51.578Z,67.333984
2019-02-09T16:15:21.444Z,67.333984
2019-02-09T16:18:51.794Z,67.126465
2019-02-09T16:22:21.950Z,67.572021
2019-02-09T16:25:51.865Z,68.597412
2019-02-09T16:29:21.762Z,67.980957
2019-02-09T16:32:51.658Z,67.675781
2019-02-09T16:36:22.539Z,68.218994
2019-02-09T16:39:52.393Z,68.835449
2019-02-09T16:43:22.261Z,69.146729
2019-02-09T16:46:52.139Z,70.178223
2019-02-09T16:50:22.002Z,70.275879
2019-02-09T16:53:51.906Z,70.556641
2019-02-09T16:57:21.786Z,70.037842
2019-02-09T17:00:51.671Z,70.037842
2019-02-09T17:04:21.557Z,70.861816
2019-02-09T17:07:52.446Z,70.965576
2019-02-09T17:11:22.293Z,71.478271
2019-02-09T17:14:52.306Z,72.338867
2019-02-09T17:18:22.128Z,72.747803
2019-02-09T17:21:51.986Z,73.193359
2019-02-09T17:25:21.835Z,72.98584
2019-02-09T17:28:51.700Z,73.913574
2019-02-09T17:32:21.568Z,74.530029
2019-02-09T17:35:51.486Z,74.633789
2019-02-09T17:39:21.332Z,74.945068
2019-02-09T17:42:53.458Z,75.390625
2019-02-09T17:46:23.153Z,75.494385
2019-02-09T17:49:52.996Z,75.90332
2019-02-09T17:53:22.881Z,76.525879
2019-02-09T17:56:52.736Z,77.075195
2019-02-09T18:00:22.638Z,76.867676
2019-02-09T18:03:52.597Z,76.971436
2019-02-09T18:07:22.596Z,77.484131
2019-02-09T18:10:52.593Z,77.380371
2019-02-09T18:14:22.439Z,77.69165
2019-02-09T18:17:52.309Z,77.484131
2019-02-09T18:21:22.643Z,77.79541
2019-02-09T18:24:52.847Z,77.79541
2019-02-09T18:28:23.034Z,77.282715
2019-02-09T18:31:52.907Z,77.453613
2019-02-09T18:35:22.766Z,77.587891
2019-02-09T18:38:52.630Z,77.587891
2019-02-09T18:42:22.532Z,78.106689
2019-02-09T18:45:57.726Z,77.380371
2019-02-09T18:49:25.443Z,77.89917
2019-02-09T18:52:55.301Z,78.106689
2019-02-09T18:56:25.190Z,78.308105
2019-02-09T18:59:55.063Z,78.00293
2019-02-09T19:03:24.913Z,78.826904
2019-02-09T19:06:54.786Z,78.930664
2019-02-09T19:10:24.730Z,78.723145
2019-02-09T19:13:54.598Z,79.23584
2019-02-09T19:17:24.580Z,80.371094
2019-02-09T19:20:54.853Z,80.474854
2019-02-09T19:24:24.718Z,80.059814
2019-02-09T19:27:54.954Z,80.682373
2019-02-09T19:31:24.817Z,80.682373
2019-02-09T19:34:54.693Z,80.682373
2019-02-09T19:38:24.579Z,80.786133
2019-02-09T19:41:55.537Z,82.330322
2019-02-09T19:45:25.551Z,84.637451
2019-02-09T19:48:55.565Z,86.94458
2019-02-09T19:52:25.432Z,88.903809
2019-02-09T19:55:55.277Z,90.490723
2019-02-09T19:59:25.139Z,90.905762
2019-02-09T20:02:56.073Z,90.594482
2019-02-09T20:06:26.035Z,90.185547
2019-02-09T20:09:56.906Z,90.081787
2019-02-09T20:13:26.984Z,89.666748
2019-02-09T20:16:57.208Z,89.251709
2019-02-09T20:20:27.099Z,89.154053
2019-02-09T20:23:56.980Z,88.531494
2019-02-09T20:27:26.868Z,88.635254
2019-02-09T20:30:56.738Z,88.946533
2019-02-09T20:34:26.662Z,88.427734
2019-02-09T20:37:57.530Z,88.946533
2019-02-09T20:41:27.387Z,88.739014
2019-02-09T20:44:57.280Z,88.531494
2019-02-09T20:48:27.149Z,87.976074
2019-02-09T20:51:56.995Z,86.633301
2019-02-09T20:55:26.844Z,86.016846
2019-02-09T20:58:56.713Z,85.601807
2019-02-09T21:02:26.568Z,85.296631
2019-02-09T21:05:56.457Z,84.942627
2019-02-09T21:09:26.404Z,83.911133
2019-02-09T21:12:56.372Z,83.398438
2019-02-09T21:16:26.208Z,83.605957
2019-02-09T21:19:57.085Z,83.087158
2019-02-09T21:23:26.944Z,83.294678
2019-02-09T21:26:56.792Z,83.398438
2019-02-09T21:30:26.699Z,83.294678
2019-02-09T21:33:56.563Z,83.331299
2019-02-09T21:37:26.465Z,83.331299
2019-02-09T21:40:56.323Z,83.331299
2019-02-09T21:44:26.183Z,82.678223
2019-02-09T21:47:56.058Z,82.885742
2019-02-09T21:51:25.910Z,82.678223
2019-02-09T21:54:55.792Z,82.574463
2019-02-09T21:58:25.652Z,82.611084
2019-02-09T22:01:55.515Z,81.854248
2019-02-09T22:05:26.406Z,82.159424
2019-02-09T22:08:56.263Z,82.159424
2019-02-09T22:12:26.106Z,82.055664
2019-02-09T22:15:55.970Z,82.263184
2019-02-09T22:19:25.830Z,81.750488
2019-02-09T22:22:55.668Z,82.055664
2019-02-09T22:26:25.587Z,81.958008
2019-02-09T22:29:55.571Z,81.750488
2019-02-09T22:33:25.342Z,82.055664
2019-02-09T22:36:55.238Z,81.646729
2019-02-09T22:40:25.193Z,81.195068
2019-02-09T22:43:55.039Z,81.402588
2019-02-09T22:47:24.931Z,81.195068
2019-02-09T22:50:54.801Z,81.091309
2019-02-09T22:54:24.651Z,81.402588
2019-02-09T22:57:54.544Z,81.402588
